sensor_id;sensor_type;location;lat;lon;timestamp;temperature;humidity
10247;DHT22;5168;47.854;7.944;2022-10-16T00:01:47;11.40;99.90
10247;DHT22;5168;47.854;7.944;2022-10-16T00:04:13;11.40;99.90
10247;DHT22;5168;47.854;7.944;2022-10-16T00:11:34;11.50;99.90
10247;DHT22;5168;47.854;7.944;2022-10-16T00:14:03;11.60;99.90
10247;DHT22;5168;47.854;7.944;2022-10-16T00:18:55;11.80;99.90
10247;DHT22;5168;47.854;7.944;2022-10-16T00:21:25;11.50;99.90
10247;DHT22;5168;47.854;7.944;2022-10-16T00:23:58;12.10;99.90
10247;DHT22;5168;47.854;7.944;2022-10-16T00:26:25;11.80;99.90
10247;DHT22;5168;47.854;7.944;2022-10-16T00:28:52;11.50;99.90
10247;DHT22;5168;47.854;7.944;2022-10-16T00:31:19;11.30;99.90
10247;DHT22;5168;47.854;7.944;2022-10-16T00:36:14;11.50;99.90
10247;DHT22;5168;47.854;7.944;2022-10-16T00:41:09;11.60;99.90
10247;DHT22;5168;47.854;7.944;2022-10-16T00:43:46;11.60;99.90
10247;DHT22;5168;47.854;7.944;2022-10-16T00:46:27;11.60;99.90
10247;DHT22;5168;47.854;7.944;2022-10-16T00:49:16;11.90;99.90
10247;DHT22;5168;47.854;7.944;2022-10-16T00:51:50;11.70;99.90
10247;DHT22;5168;47.854;7.944;2022-10-16T00:54:27;11.70;99.90
10247;DHT22;5168;47.854;7.944;2022-10-16T00:56:55;11.60;99.90
10247;DHT22;5168;47.854;7.944;2022-10-16T00:59:28;11.50;99.90
10247;DHT22;5168;47.854;7.944;2022-10-16T01:01:54;11.60;99.90
10247;DHT22;5168;47.854;7.944;2022-10-16T01:04:21;12.10;99.90
10247;DHT22;5168;47.854;7.944;2022-10-16T01:18:08;11.70;99.90
10247;DHT22;5168;47.854;7.944;2022-10-16T01:20:44;11.30;99.90
10247;DHT22;5168;47.854;7.944;2022-10-16T01:28:14;11.00;99.90
10247;DHT22;5168;47.854;7.944;2022-10-16T01:30:42;11.50;99.90
10247;DHT22;5168;47.854;7.944;2022-10-16T01:33:16;11.40;99.90
10247;DHT22;5168;47.854;7.944;2022-10-16T01:35:48;10.90;99.90
10247;DHT22;5168;47.854;7.944;2022-10-16T01:38:21;11.50;99.90
10247;DHT22;5168;47.854;7.944;2022-10-16T01:40:57;11.40;99.90
10247;DHT22;5168;47.854;7.944;2022-10-16T01:43:28;11.30;99.90
10247;DHT22;5168;47.854;7.944;2022-10-16T01:45:56;11.20;99.90
10247;DHT22;5168;47.854;7.944;2022-10-16T01:48:23;11.50;99.90
10247;DHT22;5168;47.854;7.944;2022-10-16T01:51:01;11.40;99.90
10247;DHT22;5168;47.854;7.944;2022-10-16T01:53:29;11.20;99.90
10247;DHT22;5168;47.854;7.944;2022-10-16T01:55:58;11.40;99.90
10247;DHT22;5168;47.854;7.944;2022-10-16T01:58:25;10.90;99.90
10247;DHT22;5168;47.854;7.944;2022-10-16T02:00:52;11.40;99.90
10247;DHT22;5168;47.854;7.944;2022-10-16T02:03:19;11.40;99.90
10247;DHT22;5168;47.854;7.944;2022-10-16T02:05:51;11.50;99.90
10247;DHT22;5168;47.854;7.944;2022-10-16T02:08:17;11.10;99.90
10247;DHT22;5168;47.854;7.944;2022-10-16T02:10:43;11.30;99.90
10247;DHT22;5168;47.854;7.944;2022-10-16T02:13:12;11.30;99.90
10247;DHT22;5168;47.854;7.944;2022-10-16T02:18:06;11.30;99.90
10247;DHT22;5168;47.854;7.944;2022-10-16T02:20:48;11.60;99.90
10247;DHT22;5168;47.854;7.944;2022-10-16T02:23:22;11.70;99.90
10247;DHT22;5168;47.854;7.944;2022-10-16T02:25:50;11.60;99.90
10247;DHT22;5168;47.854;7.944;2022-10-16T02:28:32;11.60;99.90
10247;DHT22;5168;47.854;7.944;2022-10-16T02:31:03;11.60;99.90
10247;DHT22;5168;47.854;7.944;2022-10-16T02:33:31;11.00;99.90
10247;DHT22;5168;47.854;7.944;2022-10-16T02:43:16;11.50;99.90
10247;DHT22;5168;47.854;7.944;2022-10-16T02:48:08;10.90;99.90
10247;DHT22;5168;47.854;7.944;2022-10-16T03:00:19;11.30;99.90
10247;DHT22;5168;47.854;7.944;2022-10-16T03:02:45;11.10;99.90
10247;DHT22;5168;47.854;7.944;2022-10-16T03:05:11;11.10;99.90
10247;DHT22;5168;47.854;7.944;2022-10-16T03:10:03;11.80;99.90
10247;DHT22;5168;47.854;7.944;2022-10-16T03:14:55;11.60;99.90
10247;DHT22;5168;47.854;7.944;2022-10-16T03:17:22;11.10;99.90
10247;DHT22;5168;47.854;7.944;2022-10-16T03:19:48;11.60;99.90
10247;DHT22;5168;47.854;7.944;2022-10-16T03:31:58;11.60;99.90
10247;DHT22;5168;47.854;7.944;2022-10-16T03:34:24;11.40;99.90
10247;DHT22;5168;47.854;7.944;2022-10-16T03:36:50;11.60;99.90
10247;DHT22;5168;47.854;7.944;2022-10-16T03:46:34;11.80;99.90
10247;DHT22;5168;47.854;7.944;2022-10-16T03:51:25;11.40;99.90
10247;DHT22;5168;47.854;7.944;2022-10-16T04:03:35;11.60;99.90
10247;DHT22;5168;47.854;7.944;2022-10-16T04:08:26;11.70;99.90
10247;DHT22;5168;47.854;7.944;2022-10-16T04:13:18;11.20;99.90
10247;DHT22;5168;47.854;7.944;2022-10-16T04:15:45;11.40;99.90
10247;DHT22;5168;47.854;7.944;2022-10-16T04:23:03;11.50;99.90
10247;DHT22;5168;47.854;7.944;2022-10-16T04:25:30;11.50;99.90
10247;DHT22;5168;47.854;7.944;2022-10-16T04:27:56;11.60;99.90
10247;DHT22;5168;47.854;7.944;2022-10-16T04:30:22;11.30;99.90
10247;DHT22;5168;47.854;7.944;2022-10-16T04:32:49;11.40;99.90
10247;DHT22;5168;47.854;7.944;2022-10-16T04:35:15;11.30;99.90
10247;DHT22;5168;47.854;7.944;2022-10-16T04:37:41;11.10;99.90
10247;DHT22;5168;47.854;7.944;2022-10-16T04:40:07;11.40;99.90
10247;DHT22;5168;47.854;7.944;2022-10-16T04:42:32;11.90;99.90
10247;DHT22;5168;47.854;7.944;2022-10-16T04:47:24;11.60;99.90
10247;DHT22;5168;47.854;7.944;2022-10-16T04:49:49;11.50;99.90
10247;DHT22;5168;47.854;7.944;2022-10-16T04:57:07;11.50;99.90
10247;DHT22;5168;47.854;7.944;2022-10-16T05:01:59;11.40;99.90
10247;DHT22;5168;47.854;7.944;2022-10-16T05:04:24;11.30;99.90
10247;DHT22;5168;47.854;7.944;2022-10-16T05:06:50;11.70;99.90
10247;DHT22;5168;47.854;7.944;2022-10-16T05:11:41;11.50;99.90
10247;DHT22;5168;47.854;7.944;2022-10-16T05:14:07;11.70;99.90
10247;DHT22;5168;47.854;7.944;2022-10-16T05:16:32;11.50;99.90
10247;DHT22;5168;47.854;7.944;2022-10-16T05:18:58;12.10;99.90
10247;DHT22;5168;47.854;7.944;2022-10-16T05:23:49;12.20;99.90
10247;DHT22;5168;47.854;7.944;2022-10-16T05:26:15;11.70;99.90
10247;DHT22;5168;47.854;7.944;2022-10-16T05:31:07;12.30;99.90
10247;DHT22;5168;47.854;7.944;2022-10-16T05:36:07;12.00;99.90
10247;DHT22;5168;47.854;7.944;2022-10-16T05:38:34;11.70;99.90
10247;DHT22;5168;47.854;7.944;2022-10-16T05:40:59;11.70;99.90
10247;DHT22;5168;47.854;7.944;2022-10-16T05:43:26;12.00;99.90
10247;DHT22;5168;47.854;7.944;2022-10-16T05:45:56;12.10;99.90
10247;DHT22;5168;47.854;7.944;2022-10-16T05:48:25;12.10;99.90
10247;DHT22;5168;47.854;7.944;2022-10-16T05:51:02;12.10;99.90
10247;DHT22;5168;47.854;7.944;2022-10-16T05:53:29;12.40;99.90
10247;DHT22;5168;47.854;7.944;2022-10-16T05:55:55;12.50;99.90
10247;DHT22;5168;47.854;7.944;2022-10-16T05:58:21;11.80;99.90
10247;DHT22;5168;47.854;7.944;2022-10-16T06:00:59;12.00;99.90
10247;DHT22;5168;47.854;7.944;2022-10-16T06:05:51;12.60;99.90
10247;DHT22;5168;47.854;7.944;2022-10-16T06:08:18;12.30;99.90
10247;DHT22;5168;47.854;7.944;2022-10-16T06:10:44;13.30;99.90
10247;DHT22;5168;47.854;7.944;2022-10-16T06:13:11;13.20;99.90
10247;DHT22;5168;47.854;7.944;2022-10-16T06:15:38;13.20;99.90
10247;DHT22;5168;47.854;7.944;2022-10-16T06:22:57;12.80;99.90
10247;DHT22;5168;47.854;7.944;2022-10-16T06:30:14;12.40;99.90
10247;DHT22;5168;47.854;7.944;2022-10-16T06:32:40;12.60;99.90
10247;DHT22;5168;47.854;7.944;2022-10-16T06:35:05;12.40;99.90
10247;DHT22;5168;47.854;7.944;2022-10-16T06:42:23;12.60;99.90
10247;DHT22;5168;47.854;7.944;2022-10-16T06:44:48;13.10;99.90
10247;DHT22;5168;47.854;7.944;2022-10-16T06:47:14;12.60;99.90
10247;DHT22;5168;47.854;7.944;2022-10-16T06:52:05;12.60;99.90
10247;DHT22;5168;47.854;7.944;2022-10-16T06:54:31;13.00;99.90
10247;DHT22;5168;47.854;7.944;2022-10-16T06:56:56;12.60;99.90
10247;DHT22;5168;47.854;7.944;2022-10-16T07:01:48;12.80;99.90
10247;DHT22;5168;47.854;7.944;2022-10-16T07:04:17;12.90;99.90
10247;DHT22;5168;47.854;7.944;2022-10-16T07:09:10;12.60;99.90
10247;DHT22;5168;47.854;7.944;2022-10-16T07:11:37;13.00;99.90
10247;DHT22;5168;47.854;7.944;2022-10-16T07:14:03;13.40;99.90
10247;DHT22;5168;47.854;7.944;2022-10-16T07:16:32;13.00;99.90
10247;DHT22;5168;47.854;7.944;2022-10-16T07:18:59;13.10;99.90
10247;DHT22;5168;47.854;7.944;2022-10-16T07:21:31;13.20;99.90
10247;DHT22;5168;47.854;7.944;2022-10-16T07:26:27;13.10;99.90
10247;DHT22;5168;47.854;7.944;2022-10-16T07:31:20;12.80;99.90
10247;DHT22;5168;47.854;7.944;2022-10-16T07:33:47;13.20;99.90
10247;DHT22;5168;47.854;7.944;2022-10-16T07:36:15;13.20;99.90
10247;DHT22;5168;47.854;7.944;2022-10-16T07:41:10;12.80;99.90
10247;DHT22;5168;47.854;7.944;2022-10-16T07:46:02;13.30;99.90
10247;DHT22;5168;47.854;7.944;2022-10-16T07:48:30;13.50;99.90
10247;DHT22;5168;47.854;7.944;2022-10-16T07:51:04;13.20;99.90
10247;DHT22;5168;47.854;7.944;2022-10-16T07:53:30;13.60;99.90
10247;DHT22;5168;47.854;7.944;2022-10-16T07:56:00;14.00;99.90
10247;DHT22;5168;47.854;7.944;2022-10-16T07:58:27;14.80;99.90
10247;DHT22;5168;47.854;7.944;2022-10-16T08:00:53;14.40;99.90
10247;DHT22;5168;47.854;7.944;2022-10-16T08:03:19;15.10;99.90
10247;DHT22;5168;47.854;7.944;2022-10-16T08:08:14;14.80;99.90
10247;DHT22;5168;47.854;7.944;2022-10-16T08:10:40;15.10;99.90
10247;DHT22;5168;47.854;7.944;2022-10-16T08:13:06;15.00;99.90
10247;DHT22;5168;47.854;7.944;2022-10-16T08:15:31;14.50;99.90
10247;DHT22;5168;47.854;7.944;2022-10-16T08:18:02;14.80;99.90
10247;DHT22;5168;47.854;7.944;2022-10-16T08:20:29;15.10;99.90
10247;DHT22;5168;47.854;7.944;2022-10-16T08:22:56;14.50;99.90
10247;DHT22;5168;47.854;7.944;2022-10-16T08:25:23;15.30;99.90
10247;DHT22;5168;47.854;7.944;2022-10-16T08:27:49;14.80;99.90
10247;DHT22;5168;47.854;7.944;2022-10-16T08:30:15;15.40;99.90
10247;DHT22;5168;47.854;7.944;2022-10-16T08:35:09;16.30;99.90
10247;DHT22;5168;47.854;7.944;2022-10-16T08:37:35;17.10;99.90
10247;DHT22;5168;47.854;7.944;2022-10-16T08:40:01;17.90;99.90
10247;DHT22;5168;47.854;7.944;2022-10-16T08:45:27;19.20;99.90
10247;DHT22;5168;47.854;7.944;2022-10-16T08:48:26;19.30;99.90
10247;DHT22;5168;47.854;7.944;2022-10-16T08:53:24;20.40;99.90
10247;DHT22;5168;47.854;7.944;2022-10-16T08:55:52;20.80;99.90
10247;DHT22;5168;47.854;7.944;2022-10-16T08:58:21;21.30;99.90
10247;DHT22;5168;47.854;7.944;2022-10-16T09:00:52;21.20;99.90
10247;DHT22;5168;47.854;7.944;2022-10-16T09:03:54;21.10;99.90
10247;DHT22;5168;47.854;7.944;2022-10-16T09:14:57;20.50;99.90
10247;DHT22;5168;47.854;7.944;2022-10-16T09:22:47;21.10;99.90
10247;DHT22;5168;47.854;7.944;2022-10-16T09:25:16;21.80;99.90
10247;DHT22;5168;47.854;7.944;2022-10-16T09:27:47;21.70;99.90
10247;DHT22;5168;47.854;7.944;2022-10-16T09:30:19;21.30;99.90
10247;DHT22;5168;47.854;7.944;2022-10-16T09:32:47;20.90;99.90
10247;DHT22;5168;47.854;7.944;2022-10-16T09:35:19;21.50;99.90
10247;DHT22;5168;47.854;7.944;2022-10-16T09:37:48;21.90;99.90
10247;DHT22;5168;47.854;7.944;2022-10-16T09:40:29;21.40;99.90
10247;DHT22;5168;47.854;7.944;2022-10-16T09:49:25;22.70;99.90
10247;DHT22;5168;47.854;7.944;2022-10-16T09:52:05;23.00;99.90
10247;DHT22;5168;47.854;7.944;2022-10-16T09:54:31;23.20;99.90
10247;DHT22;5168;47.854;7.944;2022-10-16T09:57:10;22.50;99.90
10247;DHT22;5168;47.854;7.944;2022-10-16T09:59:46;22.10;99.90
10247;DHT22;5168;47.854;7.944;2022-10-16T10:02:14;21.80;99.90
10247;DHT22;5168;47.854;7.944;2022-10-16T10:04:44;20.90;99.90
10247;DHT22;5168;47.854;7.944;2022-10-16T10:07:24;20.60;99.90
10247;DHT22;5168;47.854;7.944;2022-10-16T10:09:50;20.00;99.90
10247;DHT22;5168;47.854;7.944;2022-10-16T10:12:24;20.10;99.90
10247;DHT22;5168;47.854;7.944;2022-10-16T10:14:52;19.80;99.90
10247;DHT22;5168;47.854;7.944;2022-10-16T10:17:23;19.90;99.90
10247;DHT22;5168;47.854;7.944;2022-10-16T10:19:55;19.90;99.90
10247;DHT22;5168;47.854;7.944;2022-10-16T10:25:21;20.10;99.90
10247;DHT22;5168;47.854;7.944;2022-10-16T10:33:49;20.00;99.90
10247;DHT22;5168;47.854;7.944;2022-10-16T10:36:36;20.50;99.90
10247;DHT22;5168;47.854;7.944;2022-10-16T10:39:20;21.60;99.90
10247;DHT22;5168;47.854;7.944;2022-10-16T10:50:31;22.30;99.90
10247;DHT22;5168;47.854;7.944;2022-10-16T11:01:44;22.20;99.90
10247;DHT22;5168;47.854;7.944;2022-10-16T11:04:39;21.90;99.90
10247;DHT22;5168;47.854;7.944;2022-10-16T11:07:18;21.60;99.90
10247;DHT22;5168;47.854;7.944;2022-10-16T11:09:53;21.60;99.90
10247;DHT22;5168;47.854;7.944;2022-10-16T11:12:25;22.00;99.90
10247;DHT22;5168;47.854;7.944;2022-10-16T11:17:42;21.70;99.90
10247;DHT22;5168;47.854;7.944;2022-10-16T11:20:28;21.80;99.90
10247;DHT22;5168;47.854;7.944;2022-10-16T11:23:00;21.90;99.90
10247;DHT22;5168;47.854;7.944;2022-10-16T11:25:29;22.60;99.90
10247;DHT22;5168;47.854;7.944;2022-10-16T11:28:03;22.80;99.90
10247;DHT22;5168;47.854;7.944;2022-10-16T11:31:02;22.40;99.90
10247;DHT22;5168;47.854;7.944;2022-10-16T11:33:32;23.10;99.90
10247;DHT22;5168;47.854;7.944;2022-10-16T11:36:16;23.10;99.90
10247;DHT22;5168;47.854;7.944;2022-10-16T11:41:27;22.30;99.90
10247;DHT22;5168;47.854;7.944;2022-10-16T11:46:51;22.20;99.90
10247;DHT22;5168;47.854;7.944;2022-10-16T11:49:25;22.60;99.90
10247;DHT22;5168;47.854;7.944;2022-10-16T11:54:43;22.30;99.90
10247;DHT22;5168;47.854;7.944;2022-10-16T11:57:33;23.00;99.90
10247;DHT22;5168;47.854;7.944;2022-10-16T12:00:10;23.00;99.90
10247;DHT22;5168;47.854;7.944;2022-10-16T12:03:03;23.60;99.90
10247;DHT22;5168;47.854;7.944;2022-10-16T12:08:16;24.90;99.90
10247;DHT22;5168;47.854;7.944;2022-10-16T12:10:44;24.80;99.90
10247;DHT22;5168;47.854;7.944;2022-10-16T12:13:33;24.90;99.90
10247;DHT22;5168;47.854;7.944;2022-10-16T12:21:03;24.80;99.90
10247;DHT22;5168;47.854;7.944;2022-10-16T12:23:37;25.10;97.90
10247;DHT22;5168;47.854;7.944;2022-10-16T12:26:04;25.10;99.90
10247;DHT22;5168;47.854;7.944;2022-10-16T12:28:31;25.70;96.10
10247;DHT22;5168;47.854;7.944;2022-10-16T12:31:06;25.60;94.40
10247;DHT22;5168;47.854;7.944;2022-10-16T12:33:36;25.30;98.10
10247;DHT22;5168;47.854;7.944;2022-10-16T12:36:15;25.10;95.80
10247;DHT22;5168;47.854;7.944;2022-10-16T12:38:51;25.10;95.00
10247;DHT22;5168;47.854;7.944;2022-10-16T12:41:32;24.80;99.30
10247;DHT22;5168;47.854;7.944;2022-10-16T12:43:59;25.00;98.40
10247;DHT22;5168;47.854;7.944;2022-10-16T12:46:39;25.10;98.90
10247;DHT22;5168;47.854;7.944;2022-10-16T12:51:39;24.90;95.70
10247;DHT22;5168;47.854;7.944;2022-10-16T12:54:13;24.80;96.10
10247;DHT22;5168;47.854;7.944;2022-10-16T13:08:23;25.40;94.30
10247;DHT22;5168;47.854;7.944;2022-10-16T13:19:26;25.70;93.90
10247;DHT22;5168;47.854;7.944;2022-10-16T13:30:24;24.80;95.30
10247;DHT22;5168;47.854;7.944;2022-10-16T13:33:01;25.30;93.00
10247;DHT22;5168;47.854;7.944;2022-10-16T13:35:33;25.50;97.00
10247;DHT22;5168;47.854;7.944;2022-10-16T13:38:15;25.60;95.90
10247;DHT22;5168;47.854;7.944;2022-10-16T13:41:05;26.10;97.00
10247;DHT22;5168;47.854;7.944;2022-10-16T13:43:37;25.30;92.90
10247;DHT22;5168;47.854;7.944;2022-10-16T13:46:16;25.10;97.30
10247;DHT22;5168;47.854;7.944;2022-10-16T13:48:43;25.00;97.10
10247;DHT22;5168;47.854;7.944;2022-10-16T13:51:12;25.40;97.60
10247;DHT22;5168;47.854;7.944;2022-10-16T13:53:39;24.80;97.70
10247;DHT22;5168;47.854;7.944;2022-10-16T13:56:09;24.20;98.10
10247;DHT22;5168;47.854;7.944;2022-10-16T13:58:38;23.60;94.70
10247;DHT22;5168;47.854;7.944;2022-10-16T14:01:23;23.70;94.20
10247;DHT22;5168;47.854;7.944;2022-10-16T14:03:51;23.30;94.60
10247;DHT22;5168;47.854;7.944;2022-10-16T14:06:19;23.80;97.10
10247;DHT22;5168;47.854;7.944;2022-10-16T14:11:49;23.00;99.00
10247;DHT22;5168;47.854;7.944;2022-10-16T14:14:18;22.90;99.60
10247;DHT22;5168;47.854;7.944;2022-10-16T14:16:44;22.60;99.50
10247;DHT22;5168;47.854;7.944;2022-10-16T14:19:24;22.40;94.80
10247;DHT22;5168;47.854;7.944;2022-10-16T14:21:51;21.70;99.70
10247;DHT22;5168;47.854;7.944;2022-10-16T14:24:35;22.50;99.90
10247;DHT22;5168;47.854;7.944;2022-10-16T14:27:02;21.60;99.90
10247;DHT22;5168;47.854;7.944;2022-10-16T14:29:29;21.80;99.90
10247;DHT22;5168;47.854;7.944;2022-10-16T14:32:02;20.70;99.90
10247;DHT22;5168;47.854;7.944;2022-10-16T14:36:55;20.80;97.20
10247;DHT22;5168;47.854;7.944;2022-10-16T14:39:22;21.00;99.90
10247;DHT22;5168;47.854;7.944;2022-10-16T14:41:55;20.10;99.90
10247;DHT22;5168;47.854;7.944;2022-10-16T14:44:31;20.40;99.90
10247;DHT22;5168;47.854;7.944;2022-10-16T14:46:57;20.10;99.90
10247;DHT22;5168;47.854;7.944;2022-10-16T14:51:51;20.10;99.90
10247;DHT22;5168;47.854;7.944;2022-10-16T14:54:18;20.00;99.90
10247;DHT22;5168;47.854;7.944;2022-10-16T14:56:53;20.00;99.90
10247;DHT22;5168;47.854;7.944;2022-10-16T14:59:31;20.00;99.90
10247;DHT22;5168;47.854;7.944;2022-10-16T15:01:57;20.30;99.90
10247;DHT22;5168;47.854;7.944;2022-10-16T15:04:23;19.50;99.90
10247;DHT22;5168;47.854;7.944;2022-10-16T15:06:49;19.90;99.90
10247;DHT22;5168;47.854;7.944;2022-10-16T15:09:15;20.10;99.90
10247;DHT22;5168;47.854;7.944;2022-10-16T15:11:41;19.10;99.90
10247;DHT22;5168;47.854;7.944;2022-10-16T15:14:11;19.50;99.90
10247;DHT22;5168;47.854;7.944;2022-10-16T15:19:03;19.70;99.90
10247;DHT22;5168;47.854;7.944;2022-10-16T15:21:31;19.60;99.90
10247;DHT22;5168;47.854;7.944;2022-10-16T15:23:59;19.70;99.90
10247;DHT22;5168;47.854;7.944;2022-10-16T15:26:26;19.20;99.90
10247;DHT22;5168;47.854;7.944;2022-10-16T15:28:52;18.70;99.90
10247;DHT22;5168;47.854;7.944;2022-10-16T15:31:18;19.50;99.90
10247;DHT22;5168;47.854;7.944;2022-10-16T15:33:44;19.40;99.90
10247;DHT22;5168;47.854;7.944;2022-10-16T15:36:13;18.90;99.90
10247;DHT22;5168;47.854;7.944;2022-10-16T15:43:30;18.20;99.90
10247;DHT22;5168;47.854;7.944;2022-10-16T15:46:05;18.70;99.90
10247;DHT22;5168;47.854;7.944;2022-10-16T15:48:32;18.30;99.90
10247;DHT22;5168;47.854;7.944;2022-10-16T15:53:24;18.60;99.90
10247;DHT22;5168;47.854;7.944;2022-10-16T15:55:49;18.40;99.90
10247;DHT22;5168;47.854;7.944;2022-10-16T16:05:33;18.30;99.90
10247;DHT22;5168;47.854;7.944;2022-10-16T16:08:02;18.20;99.90
10247;DHT22;5168;47.854;7.944;2022-10-16T16:15:21;17.00;99.90
10247;DHT22;5168;47.854;7.944;2022-10-16T16:17:47;17.20;99.90
10247;DHT22;5168;47.854;7.944;2022-10-16T16:20:13;17.20;99.90
10247;DHT22;5168;47.854;7.944;2022-10-16T16:22:39;16.90;99.90
10247;DHT22;5168;47.854;7.944;2022-10-16T16:27:31;16.70;99.90
10247;DHT22;5168;47.854;7.944;2022-10-16T16:29:59;16.30;99.90
10247;DHT22;5168;47.854;7.944;2022-10-16T16:34:51;16.70;99.90
10247;DHT22;5168;47.854;7.944;2022-10-16T16:39:42;16.00;99.90
10247;DHT22;5168;47.854;7.944;2022-10-16T16:42:08;16.30;99.90
10247;DHT22;5168;47.854;7.944;2022-10-16T16:44:35;16.00;99.90
10247;DHT22;5168;47.854;7.944;2022-10-16T16:47:02;15.50;99.90
10247;DHT22;5168;47.854;7.944;2022-10-16T16:51:54;15.90;99.90
10247;DHT22;5168;47.854;7.944;2022-10-16T16:54:19;15.80;99.90
10247;DHT22;5168;47.854;7.944;2022-10-16T16:59:13;15.20;99.90
10247;DHT22;5168;47.854;7.944;2022-10-16T17:01:41;15.20;99.90
10247;DHT22;5168;47.854;7.944;2022-10-16T17:04:07;15.20;99.90
10247;DHT22;5168;47.854;7.944;2022-10-16T17:06:32;15.20;99.90
10247;DHT22;5168;47.854;7.944;2022-10-16T17:09:00;15.50;99.90
10247;DHT22;5168;47.854;7.944;2022-10-16T17:11:26;15.30;99.90
10247;DHT22;5168;47.854;7.944;2022-10-16T17:13:53;15.30;99.90
10247;DHT22;5168;47.854;7.944;2022-10-16T17:16:20;14.50;99.90
10247;DHT22;5168;47.854;7.944;2022-10-16T17:23:38;15.20;99.90
10247;DHT22;5168;47.854;7.944;2022-10-16T17:26:15;14.50;99.90
10247;DHT22;5168;47.854;7.944;2022-10-16T17:28:41;15.40;99.90
10247;DHT22;5168;47.854;7.944;2022-10-16T17:31:17;14.80;99.90
10247;DHT22;5168;47.854;7.944;2022-10-16T17:36:10;16.60;99.90
10247;DHT22;5168;47.854;7.944;2022-10-16T17:38:36;14.60;99.90
10247;DHT22;5168;47.854;7.944;2022-10-16T17:41:19;14.40;99.90
10247;DHT22;5168;47.854;7.944;2022-10-16T17:43:45;14.70;99.90
10247;DHT22;5168;47.854;7.944;2022-10-16T17:46:12;14.70;99.90
10247;DHT22;5168;47.854;7.944;2022-10-16T17:48:39;14.20;99.90
10247;DHT22;5168;47.854;7.944;2022-10-16T17:51:09;14.40;99.90
10247;DHT22;5168;47.854;7.944;2022-10-16T17:53:36;14.30;99.90
10247;DHT22;5168;47.854;7.944;2022-10-16T17:56:07;14.50;99.90
10247;DHT22;5168;47.854;7.944;2022-10-16T17:58:33;14.10;99.90
10247;DHT22;5168;47.854;7.944;2022-10-16T18:03:26;14.00;99.90
10247;DHT22;5168;47.854;7.944;2022-10-16T18:05:53;14.10;99.90
10247;DHT22;5168;47.854;7.944;2022-10-16T18:08:20;14.20;99.90
10247;DHT22;5168;47.854;7.944;2022-10-16T18:10:49;14.40;99.90
10247;DHT22;5168;47.854;7.944;2022-10-16T18:13:15;14.40;99.90
10247;DHT22;5168;47.854;7.944;2022-10-16T18:18:08;14.20;99.90
10247;DHT22;5168;47.854;7.944;2022-10-16T18:20:36;14.00;99.90
10247;DHT22;5168;47.854;7.944;2022-10-16T18:23:02;14.60;99.90
10247;DHT22;5168;47.854;7.944;2022-10-16T18:27:54;13.50;99.90
10247;DHT22;5168;47.854;7.944;2022-10-16T18:30:19;13.40;99.90
10247;DHT22;5168;47.854;7.944;2022-10-16T18:32:45;13.70;99.90
10247;DHT22;5168;47.854;7.944;2022-10-16T18:37:36;13.40;99.90
10247;DHT22;5168;47.854;7.944;2022-10-16T18:40:03;13.90;99.90
10247;DHT22;5168;47.854;7.944;2022-10-16T18:42:29;13.80;99.90
10247;DHT22;5168;47.854;7.944;2022-10-16T18:49:48;13.80;99.90
10247;DHT22;5168;47.854;7.944;2022-10-16T18:57:08;13.60;99.90
10247;DHT22;5168;47.854;7.944;2022-10-16T19:09:22;13.60;99.90
10247;DHT22;5168;47.854;7.944;2022-10-16T19:11:48;14.00;99.90
10247;DHT22;5168;47.854;7.944;2022-10-16T19:14:15;13.60;99.90
10247;DHT22;5168;47.854;7.944;2022-10-16T19:19:13;13.90;99.90
10247;DHT22;5168;47.854;7.944;2022-10-16T19:24:06;13.80;99.90
10247;DHT22;5168;47.854;7.944;2022-10-16T19:26:33;13.80;99.90
10247;DHT22;5168;47.854;7.944;2022-10-16T19:29:00;13.30;99.90
10247;DHT22;5168;47.854;7.944;2022-10-16T19:31:28;13.60;99.90
10247;DHT22;5168;47.854;7.944;2022-10-16T19:33:56;13.50;99.90
10247;DHT22;5168;47.854;7.944;2022-10-16T19:36:33;13.50;99.90
10247;DHT22;5168;47.854;7.944;2022-10-16T19:39:04;13.30;99.90
10247;DHT22;5168;47.854;7.944;2022-10-16T19:41:31;13.40;99.90
10247;DHT22;5168;47.854;7.944;2022-10-16T19:44:01;13.50;99.90
10247;DHT22;5168;47.854;7.944;2022-10-16T19:46:27;13.80;99.90
10247;DHT22;5168;47.854;7.944;2022-10-16T19:48:56;13.90;99.90
10247;DHT22;5168;47.854;7.944;2022-10-16T19:51:22;13.40;99.90
10247;DHT22;5168;47.854;7.944;2022-10-16T19:53:53;13.30;99.90
10247;DHT22;5168;47.854;7.944;2022-10-16T19:56:21;13.40;99.90
10247;DHT22;5168;47.854;7.944;2022-10-16T19:58:47;13.80;99.90
10247;DHT22;5168;47.854;7.944;2022-10-16T20:01:15;13.30;99.90
10247;DHT22;5168;47.854;7.944;2022-10-16T20:03:45;13.00;99.90
10247;DHT22;5168;47.854;7.944;2022-10-16T20:06:11;13.10;99.90
10247;DHT22;5168;47.854;7.944;2022-10-16T20:08:38;13.40;99.90
10247;DHT22;5168;47.854;7.944;2022-10-16T20:11:05;13.30;99.90
10247;DHT22;5168;47.854;7.944;2022-10-16T20:13:31;13.60;99.90
10247;DHT22;5168;47.854;7.944;2022-10-16T20:15:58;13.30;99.90
10247;DHT22;5168;47.854;7.944;2022-10-16T20:18:24;13.20;99.90
10247;DHT22;5168;47.854;7.944;2022-10-16T20:20:49;13.60;99.90
10247;DHT22;5168;47.854;7.944;2022-10-16T20:23:17;13.10;99.90
10247;DHT22;5168;47.854;7.944;2022-10-16T20:28:17;12.90;99.90
10247;DHT22;5168;47.854;7.944;2022-10-16T20:30:45;13.60;99.90
10247;DHT22;5168;47.854;7.944;2022-10-16T20:35:46;13.50;99.90
10247;DHT22;5168;47.854;7.944;2022-10-16T20:38:13;13.20;99.90
10247;DHT22;5168;47.854;7.944;2022-10-16T20:40:41;13.10;99.90
10247;DHT22;5168;47.854;7.944;2022-10-16T20:43:11;13.50;99.90
10247;DHT22;5168;47.854;7.944;2022-10-16T20:52:56;13.10;99.90
10247;DHT22;5168;47.854;7.944;2022-10-16T20:57:48;13.20;99.90
10247;DHT22;5168;47.854;7.944;2022-10-16T21:02:40;13.00;99.90
10247;DHT22;5168;47.854;7.944;2022-10-16T21:05:06;12.70;99.90
10247;DHT22;5168;47.854;7.944;2022-10-16T21:07:32;13.40;99.90
10247;DHT22;5168;47.854;7.944;2022-10-16T21:09:58;13.00;99.90
10247;DHT22;5168;47.854;7.944;2022-10-16T21:12:25;13.20;99.90
10247;DHT22;5168;47.854;7.944;2022-10-16T21:14:51;13.30;99.90
10247;DHT22;5168;47.854;7.944;2022-10-16T21:19:43;13.30;99.90
10247;DHT22;5168;47.854;7.944;2022-10-16T21:27:05;12.80;99.90
10247;DHT22;5168;47.854;7.944;2022-10-16T21:29:31;13.20;99.90
10247;DHT22;5168;47.854;7.944;2022-10-16T21:34:23;12.80;99.90
10247;DHT22;5168;47.854;7.944;2022-10-16T21:36:49;12.60;99.90
10247;DHT22;5168;47.854;7.944;2022-10-16T21:39:16;13.20;99.90
10247;DHT22;5168;47.854;7.944;2022-10-16T21:41:45;12.90;99.90
10247;DHT22;5168;47.854;7.944;2022-10-16T21:44:11;13.00;99.90
10247;DHT22;5168;47.854;7.944;2022-10-16T21:46:39;13.10;99.90
10247;DHT22;5168;47.854;7.944;2022-10-16T21:49:06;12.60;99.90
10247;DHT22;5168;47.854;7.944;2022-10-16T21:51:40;12.90;99.90
10247;DHT22;5168;47.854;7.944;2022-10-16T21:54:10;13.00;99.90
10247;DHT22;5168;47.854;7.944;2022-10-16T21:56:36;13.00;99.90
10247;DHT22;5168;47.854;7.944;2022-10-16T21:59:02;13.00;99.90
10247;DHT22;5168;47.854;7.944;2022-10-16T22:01:28;13.10;99.90
10247;DHT22;5168;47.854;7.944;2022-10-16T22:06:23;13.20;99.90